sensor_id;sensor_type;location;lat;lon;timestamp;P1;durP1;ratioP1;P2;durP2;ratioP2
61252;SDS011;47127;47.516;8.596;2024-01-07T00:01:31;4.68;;;2.03;;
61252;SDS011;47127;47.516;8.596;2024-01-07T00:03:56;5.07;;;2.22;;
61252;SDS011;47127;47.516;8.596;2024-01-07T00:06:23;4.50;;;2.15;;
61252;SDS011;47127;47.516;8.596;2024-01-07T00:08:49;4.45;;;2.35;;
61252;SDS011;47127;47.516;8.596;2024-01-07T00:11:14;3.83;;;1.63;;
61252;SDS011;47127;47.516;8.596;2024-01-07T00:13:40;3.08;;;1.80;;
61252;SDS011;47127;47.516;8.596;2024-01-07T00:16:06;4.47;;;2.10;;
61252;SDS011;47127;47.516;8.596;2024-01-07T00:18:32;3.40;;;1.60;;
61252;SDS011;47127;47.516;8.596;2024-01-07T00:20:57;3.50;;;1.77;;
61252;SDS011;47127;47.516;8.596;2024-01-07T00:23:23;3.35;;;1.42;;
61252;SDS011;47127;47.516;8.596;2024-01-07T00:25:50;4.82;;;1.80;;
61252;SDS011;47127;47.516;8.596;2024-01-07T00:28:15;4.95;;;1.90;;
61252;SDS011;47127;47.516;8.596;2024-01-07T00:30:41;3.80;;;2.05;;
61252;SDS011;47127;47.516;8.596;2024-01-07T00:33:06;3.28;;;1.77;;
61252;SDS011;47127;47.516;8.596;2024-01-07T00:35:32;3.90;;;2.10;;
61252;SDS011;47127;47.516;8.596;2024-01-07T00:37:57;3.75;;;1.90;;
61252;SDS011;47127;47.516;8.596;2024-01-07T00:40:24;3.63;;;1.95;;
61252;SDS011;47127;47.516;8.596;2024-01-07T00:42:50;4.20;;;1.88;;
61252;SDS011;47127;47.516;8.596;2024-01-07T00:45:16;6.03;;;2.08;;
61252;SDS011;47127;47.516;8.596;2024-01-07T00:47:42;5.97;;;2.05;;
61252;SDS011;47127;47.516;8.596;2024-01-07T00:50:08;3.10;;;1.60;;
61252;SDS011;47127;47.516;8.596;2024-01-07T00:52:34;4.13;;;1.70;;
61252;SDS011;47127;47.516;8.596;2024-01-07T00:55:02;3.67;;;1.90;;
61252;SDS011;47127;47.516;8.596;2024-01-07T00:57:31;3.70;;;2.25;;
61252;SDS011;47127;47.516;8.596;2024-01-07T00:59:57;3.28;;;1.80;;
61252;SDS011;47127;47.516;8.596;2024-01-07T01:02:23;3.03;;;1.60;;
61252;SDS011;47127;47.516;8.596;2024-01-07T01:04:48;3.33;;;1.50;;
61252;SDS011;47127;47.516;8.596;2024-01-07T01:07:14;3.47;;;1.30;;
61252;SDS011;47127;47.516;8.596;2024-01-07T01:09:40;2.83;;;1.45;;
61252;SDS011;47127;47.516;8.596;2024-01-07T01:12:05;2.88;;;1.52;;
61252;SDS011;47127;47.516;8.596;2024-01-07T01:14:31;2.83;;;1.40;;
61252;SDS011;47127;47.516;8.596;2024-01-07T01:16:57;2.97;;;1.67;;
61252;SDS011;47127;47.516;8.596;2024-01-07T01:19:23;3.38;;;1.60;;
61252;SDS011;47127;47.516;8.596;2024-01-07T01:21:49;4.28;;;2.10;;
61252;SDS011;47127;47.516;8.596;2024-01-07T01:24:15;3.50;;;1.70;;
61252;SDS011;47127;47.516;8.596;2024-01-07T01:26:40;3.42;;;1.73;;
61252;SDS011;47127;47.516;8.596;2024-01-07T01:29:06;3.28;;;1.90;;
61252;SDS011;47127;47.516;8.596;2024-01-07T01:31:31;3.25;;;1.67;;
61252;SDS011;47127;47.516;8.596;2024-01-07T01:33:57;3.53;;;1.88;;
61252;SDS011;47127;47.516;8.596;2024-01-07T01:36:22;3.00;;;1.67;;
61252;SDS011;47127;47.516;8.596;2024-01-07T01:38:48;2.72;;;1.55;;
61252;SDS011;47127;47.516;8.596;2024-01-07T01:41:14;3.33;;;2.00;;
61252;SDS011;47127;47.516;8.596;2024-01-07T01:43:41;2.88;;;1.50;;
61252;SDS011;47127;47.516;8.596;2024-01-07T01:46:06;3.42;;;1.85;;
61252;SDS011;47127;47.516;8.596;2024-01-07T01:48:32;4.10;;;1.90;;
61252;SDS011;47127;47.516;8.596;2024-01-07T01:50:58;4.70;;;2.30;;
61252;SDS011;47127;47.516;8.596;2024-01-07T01:53:24;4.45;;;2.10;;
61252;SDS011;47127;47.516;8.596;2024-01-07T01:55:54;3.08;;;1.48;;
61252;SDS011;47127;47.516;8.596;2024-01-07T01:58:22;3.53;;;1.95;;
61252;SDS011;47127;47.516;8.596;2024-01-07T02:00:49;3.58;;;1.98;;
61252;SDS011;47127;47.516;8.596;2024-01-07T02:03:16;3.50;;;1.90;;
61252;SDS011;47127;47.516;8.596;2024-01-07T02:05:42;5.30;;;2.47;;
61252;SDS011;47127;47.516;8.596;2024-01-07T02:08:08;4.32;;;2.22;;
61252;SDS011;47127;47.516;8.596;2024-01-07T02:10:35;4.53;;;2.35;;
61252;SDS011;47127;47.516;8.596;2024-01-07T02:13:02;4.03;;;2.15;;
61252;SDS011;47127;47.516;8.596;2024-01-07T02:15:31;3.63;;;1.85;;
61252;SDS011;47127;47.516;8.596;2024-01-07T02:17:57;5.18;;;2.63;;
61252;SDS011;47127;47.516;8.596;2024-01-07T02:20:23;5.57;;;2.58;;
61252;SDS011;47127;47.516;8.596;2024-01-07T02:22:50;4.70;;;2.30;;
61252;SDS011;47127;47.516;8.596;2024-01-07T02:25:16;5.13;;;2.67;;
61252;SDS011;47127;47.516;8.596;2024-01-07T02:27:42;5.82;;;3.20;;
61252;SDS011;47127;47.516;8.596;2024-01-07T02:30:07;5.22;;;2.55;;
61252;SDS011;47127;47.516;8.596;2024-01-07T02:32:33;4.45;;;2.40;;
61252;SDS011;47127;47.516;8.596;2024-01-07T02:35:01;6.22;;;2.60;;
61252;SDS011;47127;47.516;8.596;2024-01-07T02:37:27;4.20;;;2.40;;
61252;SDS011;47127;47.516;8.596;2024-01-07T02:39:52;6.68;;;3.20;;
61252;SDS011;47127;47.516;8.596;2024-01-07T02:42:18;4.68;;;2.58;;
61252;SDS011;47127;47.516;8.596;2024-01-07T02:44:43;5.15;;;2.40;;
61252;SDS011;47127;47.516;8.596;2024-01-07T02:47:09;4.00;;;2.30;;
61252;SDS011;47127;47.516;8.596;2024-01-07T02:49:35;5.13;;;3.00;;
61252;SDS011;47127;47.516;8.596;2024-01-07T02:52:00;5.55;;;2.85;;
61252;SDS011;47127;47.516;8.596;2024-01-07T02:54:26;5.03;;;2.53;;
61252;SDS011;47127;47.516;8.596;2024-01-07T02:56:51;5.07;;;2.67;;
61252;SDS011;47127;47.516;8.596;2024-01-07T02:59:19;4.85;;;2.42;;
61252;SDS011;47127;47.516;8.596;2024-01-07T03:01:44;5.32;;;2.53;;
61252;SDS011;47127;47.516;8.596;2024-01-07T03:04:10;4.47;;;2.63;;
61252;SDS011;47127;47.516;8.596;2024-01-07T03:06:38;7.18;;;2.42;;
61252;SDS011;47127;47.516;8.596;2024-01-07T03:09:04;4.03;;;2.20;;
61252;SDS011;47127;47.516;8.596;2024-01-07T03:11:29;5.22;;;2.55;;
61252;SDS011;47127;47.516;8.596;2024-01-07T03:13:55;4.95;;;2.58;;
61252;SDS011;47127;47.516;8.596;2024-01-07T03:16:22;4.05;;;2.45;;
61252;SDS011;47127;47.516;8.596;2024-01-07T03:18:48;4.43;;;2.22;;
61252;SDS011;47127;47.516;8.596;2024-01-07T03:21:20;5.07;;;2.65;;
61252;SDS011;47127;47.516;8.596;2024-01-07T03:23:47;4.85;;;2.45;;
61252;SDS011;47127;47.516;8.596;2024-01-07T03:26:13;4.68;;;2.40;;
61252;SDS011;47127;47.516;8.596;2024-01-07T03:28:39;7.68;;;2.22;;
61252;SDS011;47127;47.516;8.596;2024-01-07T03:31:08;4.85;;;2.40;;
61252;SDS011;47127;47.516;8.596;2024-01-07T03:33:36;4.32;;;2.40;;
61252;SDS011;47127;47.516;8.596;2024-01-07T03:36:06;5.80;;;2.50;;
61252;SDS011;47127;47.516;8.596;2024-01-07T03:38:35;5.82;;;2.50;;
61252;SDS011;47127;47.516;8.596;2024-01-07T03:41:02;4.07;;;2.33;;
61252;SDS011;47127;47.516;8.596;2024-01-07T03:43:28;3.92;;;2.17;;
61252;SDS011;47127;47.516;8.596;2024-01-07T03:45:53;5.15;;;2.20;;
61252;SDS011;47127;47.516;8.596;2024-01-07T03:48:19;5.85;;;2.65;;
61252;SDS011;47127;47.516;8.596;2024-01-07T03:50:45;6.20;;;3.17;;
61252;SDS011;47127;47.516;8.596;2024-01-07T03:53:10;3.80;;;2.10;;
61252;SDS011;47127;47.516;8.596;2024-01-07T03:55:36;5.90;;;2.95;;
61252;SDS011;47127;47.516;8.596;2024-01-07T03:58:02;4.32;;;2.38;;
61252;SDS011;47127;47.516;8.596;2024-01-07T04:00:28;5.30;;;2.80;;
61252;SDS011;47127;47.516;8.596;2024-01-07T04:02:53;4.53;;;2.42;;
61252;SDS011;47127;47.516;8.596;2024-01-07T04:05:19;5.60;;;2.65;;
61252;SDS011;47127;47.516;8.596;2024-01-07T04:07:45;4.30;;;2.22;;
61252;SDS011;47127;47.516;8.596;2024-01-07T04:10:10;5.25;;;2.33;;
61252;SDS011;47127;47.516;8.596;2024-01-07T04:12:36;5.95;;;2.83;;
61252;SDS011;47127;47.516;8.596;2024-01-07T04:15:02;5.00;;;2.50;;
61252;SDS011;47127;47.516;8.596;2024-01-07T04:17:28;5.53;;;2.97;;
61252;SDS011;47127;47.516;8.596;2024-01-07T04:19:54;4.72;;;2.55;;
61252;SDS011;47127;47.516;8.596;2024-01-07T04:22:20;5.22;;;2.97;;
61252;SDS011;47127;47.516;8.596;2024-01-07T04:24:45;6.18;;;2.78;;
61252;SDS011;47127;47.516;8.596;2024-01-07T04:27:11;6.10;;;2.88;;
61252;SDS011;47127;47.516;8.596;2024-01-07T04:29:36;4.53;;;2.35;;
61252;SDS011;47127;47.516;8.596;2024-01-07T04:32:03;5.97;;;2.72;;
61252;SDS011;47127;47.516;8.596;2024-01-07T04:34:29;4.75;;;2.50;;
61252;SDS011;47127;47.516;8.596;2024-01-07T04:36:54;7.68;;;3.10;;
61252;SDS011;47127;47.516;8.596;2024-01-07T04:39:20;5.53;;;2.95;;
61252;SDS011;47127;47.516;8.596;2024-01-07T04:41:46;5.30;;;2.72;;
61252;SDS011;47127;47.516;8.596;2024-01-07T04:44:11;6.65;;;2.90;;
61252;SDS011;47127;47.516;8.596;2024-01-07T04:46:38;5.57;;;2.90;;
61252;SDS011;47127;47.516;8.596;2024-01-07T04:49:05;5.45;;;2.65;;
61252;SDS011;47127;47.516;8.596;2024-01-07T04:51:31;5.45;;;2.63;;
61252;SDS011;47127;47.516;8.596;2024-01-07T04:53:57;6.18;;;3.17;;
61252;SDS011;47127;47.516;8.596;2024-01-07T04:56:23;5.82;;;2.95;;
61252;SDS011;47127;47.516;8.596;2024-01-07T04:58:49;4.75;;;2.60;;
61252;SDS011;47127;47.516;8.596;2024-01-07T05:01:14;6.03;;;2.88;;
61252;SDS011;47127;47.516;8.596;2024-01-07T05:03:40;6.22;;;3.05;;
61252;SDS011;47127;47.516;8.596;2024-01-07T05:06:08;6.82;;;3.22;;
61252;SDS011;47127;47.516;8.596;2024-01-07T05:08:35;5.93;;;2.83;;
61252;SDS011;47127;47.516;8.596;2024-01-07T05:11:02;7.38;;;2.95;;
61252;SDS011;47127;47.516;8.596;2024-01-07T05:13:28;6.50;;;3.33;;
61252;SDS011;47127;47.516;8.596;2024-01-07T05:15:53;6.20;;;3.08;;
61252;SDS011;47127;47.516;8.596;2024-01-07T05:18:22;7.07;;;3.65;;
61252;SDS011;47127;47.516;8.596;2024-01-07T05:20:48;5.35;;;3.03;;
61252;SDS011;47127;47.516;8.596;2024-01-07T05:23:15;7.07;;;3.20;;
61252;SDS011;47127;47.516;8.596;2024-01-07T05:25:43;7.15;;;3.58;;
61252;SDS011;47127;47.516;8.596;2024-01-07T05:28:10;7.13;;;3.50;;
61252;SDS011;47127;47.516;8.596;2024-01-07T05:30:36;6.20;;;3.10;;
61252;SDS011;47127;47.516;8.596;2024-01-07T05:33:02;6.72;;;3.25;;
61252;SDS011;47127;47.516;8.596;2024-01-07T05:35:27;8.35;;;3.47;;
61252;SDS011;47127;47.516;8.596;2024-01-07T05:37:53;7.30;;;3.40;;
61252;SDS011;47127;47.516;8.596;2024-01-07T05:40:18;7.38;;;3.35;;
61252;SDS011;47127;47.516;8.596;2024-01-07T05:42:44;8.98;;;3.38;;
61252;SDS011;47127;47.516;8.596;2024-01-07T05:45:10;6.75;;;3.47;;
61252;SDS011;47127;47.516;8.596;2024-01-07T05:47:35;9.02;;;3.47;;
61252;SDS011;47127;47.516;8.596;2024-01-07T05:50:01;7.90;;;3.65;;
61252;SDS011;47127;47.516;8.596;2024-01-07T05:52:27;7.30;;;3.63;;
61252;SDS011;47127;47.516;8.596;2024-01-07T05:54:53;9.73;;;3.55;;
61252;SDS011;47127;47.516;8.596;2024-01-07T05:57:18;7.53;;;3.78;;
61252;SDS011;47127;47.516;8.596;2024-01-07T05:59:44;9.23;;;4.05;;
61252;SDS011;47127;47.516;8.596;2024-01-07T06:02:10;6.55;;;3.10;;
61252;SDS011;47127;47.516;8.596;2024-01-07T06:04:37;7.88;;;3.65;;
61252;SDS011;47127;47.516;8.596;2024-01-07T06:07:03;6.72;;;3.33;;
61252;SDS011;47127;47.516;8.596;2024-01-07T06:09:29;8.10;;;4.00;;
61252;SDS011;47127;47.516;8.596;2024-01-07T06:11:55;6.70;;;3.58;;
61252;SDS011;47127;47.516;8.596;2024-01-07T06:14:21;9.00;;;4.13;;
61252;SDS011;47127;47.516;8.596;2024-01-07T06:16:47;7.47;;;3.72;;
61252;SDS011;47127;47.516;8.596;2024-01-07T06:19:13;7.57;;;3.97;;
61252;SDS011;47127;47.516;8.596;2024-01-07T06:21:39;7.90;;;3.75;;
61252;SDS011;47127;47.516;8.596;2024-01-07T06:24:05;8.68;;;3.92;;
61252;SDS011;47127;47.516;8.596;2024-01-07T06:26:32;8.45;;;3.72;;
61252;SDS011;47127;47.516;8.596;2024-01-07T06:28:58;8.40;;;3.75;;
61252;SDS011;47127;47.516;8.596;2024-01-07T06:31:24;7.57;;;3.75;;
61252;SDS011;47127;47.516;8.596;2024-01-07T06:33:50;7.22;;;3.40;;
61252;SDS011;47127;47.516;8.596;2024-01-07T06:36:16;7.20;;;3.28;;
61252;SDS011;47127;47.516;8.596;2024-01-07T06:38:41;7.15;;;3.33;;
61252;SDS011;47127;47.516;8.596;2024-01-07T06:41:07;8.43;;;3.65;;
61252;SDS011;47127;47.516;8.596;2024-01-07T06:43:34;7.10;;;3.33;;
61252;SDS011;47127;47.516;8.596;2024-01-07T06:46:00;6.70;;;3.50;;
61252;SDS011;47127;47.516;8.596;2024-01-07T06:48:25;6.97;;;3.20;;
61252;SDS011;47127;47.516;8.596;2024-01-07T06:50:51;7.97;;;3.92;;
61252;SDS011;47127;47.516;8.596;2024-01-07T06:53:16;7.00;;;3.47;;
61252;SDS011;47127;47.516;8.596;2024-01-07T06:55:42;8.73;;;3.92;;
61252;SDS011;47127;47.516;8.596;2024-01-07T06:58:08;8.43;;;4.10;;
61252;SDS011;47127;47.516;8.596;2024-01-07T07:00:33;9.07;;;4.25;;
61252;SDS011;47127;47.516;8.596;2024-01-07T07:02:59;9.52;;;4.40;;
61252;SDS011;47127;47.516;8.596;2024-01-07T07:05:25;8.88;;;4.22;;
61252;SDS011;47127;47.516;8.596;2024-01-07T07:07:51;8.60;;;4.25;;
61252;SDS011;47127;47.516;8.596;2024-01-07T07:10:17;9.50;;;4.20;;
61252;SDS011;47127;47.516;8.596;2024-01-07T07:12:42;9.55;;;4.90;;
61252;SDS011;47127;47.516;8.596;2024-01-07T07:15:08;8.40;;;4.18;;
61252;SDS011;47127;47.516;8.596;2024-01-07T07:17:36;9.65;;;4.60;;
61252;SDS011;47127;47.516;8.596;2024-01-07T07:20:03;10.25;;;4.70;;
61252;SDS011;47127;47.516;8.596;2024-01-07T07:22:30;8.48;;;4.10;;
61252;SDS011;47127;47.516;8.596;2024-01-07T07:24:55;8.25;;;4.10;;
61252;SDS011;47127;47.516;8.596;2024-01-07T07:27:21;10.45;;;4.53;;
61252;SDS011;47127;47.516;8.596;2024-01-07T07:29:46;8.98;;;4.03;;
61252;SDS011;47127;47.516;8.596;2024-01-07T07:32:12;8.43;;;4.35;;
61252;SDS011;47127;47.516;8.596;2024-01-07T07:34:38;9.98;;;4.80;;
61252;SDS011;47127;47.516;8.596;2024-01-07T07:37:03;10.27;;;4.55;;
61252;SDS011;47127;47.516;8.596;2024-01-07T07:39:29;8.10;;;4.03;;
61252;SDS011;47127;47.516;8.596;2024-01-07T07:41:54;10.10;;;5.35;;
61252;SDS011;47127;47.516;8.596;2024-01-07T07:44:20;9.48;;;4.50;;
61252;SDS011;47127;47.516;8.596;2024-01-07T07:46:46;11.43;;;4.78;;
61252;SDS011;47127;47.516;8.596;2024-01-07T07:49:11;9.57;;;4.47;;
61252;SDS011;47127;47.516;8.596;2024-01-07T07:51:38;8.80;;;3.85;;
61252;SDS011;47127;47.516;8.596;2024-01-07T07:54:04;10.05;;;4.63;;
61252;SDS011;47127;47.516;8.596;2024-01-07T07:56:30;8.75;;;3.63;;
61252;SDS011;47127;47.516;8.596;2024-01-07T07:59:00;8.20;;;4.03;;
61252;SDS011;47127;47.516;8.596;2024-01-07T08:01:26;9.30;;;4.45;;
61252;SDS011;47127;47.516;8.596;2024-01-07T08:03:52;9.13;;;4.63;;
61252;SDS011;47127;47.516;8.596;2024-01-07T08:06:18;9.52;;;4.22;;
61252;SDS011;47127;47.516;8.596;2024-01-07T08:08:43;7.95;;;3.80;;
61252;SDS011;47127;47.516;8.596;2024-01-07T08:11:09;10.07;;;4.22;;
61252;SDS011;47127;47.516;8.596;2024-01-07T08:13:35;10.82;;;4.43;;
61252;SDS011;47127;47.516;8.596;2024-01-07T08:16:02;8.65;;;4.15;;
61252;SDS011;47127;47.516;8.596;2024-01-07T08:18:28;8.60;;;3.58;;
61252;SDS011;47127;47.516;8.596;2024-01-07T08:20:53;9.20;;;4.43;;
61252;SDS011;47127;47.516;8.596;2024-01-07T08:23:19;11.43;;;5.07;;
61252;SDS011;47127;47.516;8.596;2024-01-07T08:25:45;9.90;;;4.47;;
61252;SDS011;47127;47.516;8.596;2024-01-07T08:28:11;8.77;;;3.58;;
61252;SDS011;47127;47.516;8.596;2024-01-07T08:30:37;8.63;;;3.83;;
61252;SDS011;47127;47.516;8.596;2024-01-07T08:33:02;9.77;;;4.78;;
61252;SDS011;47127;47.516;8.596;2024-01-07T08:35:28;8.57;;;4.38;;
61252;SDS011;47127;47.516;8.596;2024-01-07T08:37:53;10.85;;;5.00;;
61252;SDS011;47127;47.516;8.596;2024-01-07T08:40:19;10.05;;;4.70;;
61252;SDS011;47127;47.516;8.596;2024-01-07T08:42:44;9.60;;;4.65;;
61252;SDS011;47127;47.516;8.596;2024-01-07T08:45:11;9.50;;;4.50;;
61252;SDS011;47127;47.516;8.596;2024-01-07T08:47:38;10.75;;;4.85;;
61252;SDS011;47127;47.516;8.596;2024-01-07T08:50:05;10.90;;;4.40;;
61252;SDS011;47127;47.516;8.596;2024-01-07T08:52:30;9.73;;;4.30;;
61252;SDS011;47127;47.516;8.596;2024-01-07T08:54:56;8.23;;;4.22;;
61252;SDS011;47127;47.516;8.596;2024-01-07T08:57:22;9.70;;;4.47;;
61252;SDS011;47127;47.516;8.596;2024-01-07T08:59:47;9.98;;;4.85;;
61252;SDS011;47127;47.516;8.596;2024-01-07T09:02:13;10.60;;;5.22;;
61252;SDS011;47127;47.516;8.596;2024-01-07T09:04:39;8.30;;;4.28;;
61252;SDS011;47127;47.516;8.596;2024-01-07T09:07:04;8.98;;;4.28;;
61252;SDS011;47127;47.516;8.596;2024-01-07T09:09:30;8.27;;;4.07;;
61252;SDS011;47127;47.516;8.596;2024-01-07T09:11:55;8.23;;;3.78;;
61252;SDS011;47127;47.516;8.596;2024-01-07T09:14:22;8.50;;;4.30;;
61252;SDS011;47127;47.516;8.596;2024-01-07T09:16:50;8.65;;;4.10;;
61252;SDS011;47127;47.516;8.596;2024-01-07T09:19:15;8.38;;;4.22;;
61252;SDS011;47127;47.516;8.596;2024-01-07T09:21:42;7.55;;;4.07;;
61252;SDS011;47127;47.516;8.596;2024-01-07T09:24:08;8.20;;;4.05;;
61252;SDS011;47127;47.516;8.596;2024-01-07T09:26:34;8.88;;;4.30;;
61252;SDS011;47127;47.516;8.596;2024-01-07T09:29:00;7.38;;;3.70;;
61252;SDS011;47127;47.516;8.596;2024-01-07T09:31:26;8.15;;;3.85;;
61252;SDS011;47127;47.516;8.596;2024-01-07T09:33:52;7.95;;;4.07;;
61252;SDS011;47127;47.516;8.596;2024-01-07T09:36:18;6.97;;;3.65;;
61252;SDS011;47127;47.516;8.596;2024-01-07T09:38:44;8.20;;;4.10;;
61252;SDS011;47127;47.516;8.596;2024-01-07T09:41:09;7.88;;;3.78;;
61252;SDS011;47127;47.516;8.596;2024-01-07T09:43:35;9.43;;;4.47;;
61252;SDS011;47127;47.516;8.596;2024-01-07T09:46:01;7.45;;;3.50;;
61252;SDS011;47127;47.516;8.596;2024-01-07T09:48:27;8.45;;;4.00;;
61252;SDS011;47127;47.516;8.596;2024-01-07T09:50:53;10.80;;;3.90;;
61252;SDS011;47127;47.516;8.596;2024-01-07T09:53:20;8.93;;;4.07;;
61252;SDS011;47127;47.516;8.596;2024-01-07T09:55:56;8.23;;;3.85;;
61252;SDS011;47127;47.516;8.596;2024-01-07T09:58:32;7.43;;;3.75;;
61252;SDS011;47127;47.516;8.596;2024-01-07T10:00:58;10.45;;;4.45;;
61252;SDS011;47127;47.516;8.596;2024-01-07T10:03:24;8.02;;;3.95;;
61252;SDS011;47127;47.516;8.596;2024-01-07T10:05:50;6.45;;;2.97;;
61252;SDS011;47127;47.516;8.596;2024-01-07T10:08:16;6.60;;;3.15;;
61252;SDS011;47127;47.516;8.596;2024-01-07T10:10:42;8.20;;;3.40;;
61252;SDS011;47127;47.516;8.596;2024-01-07T10:13:08;7.65;;;3.55;;
61252;SDS011;47127;47.516;8.596;2024-01-07T10:15:34;7.07;;;3.50;;
61252;SDS011;47127;47.516;8.596;2024-01-07T10:18:03;7.15;;;3.15;;
61252;SDS011;47127;47.516;8.596;2024-01-07T10:20:31;6.18;;;3.35;;
61252;SDS011;47127;47.516;8.596;2024-01-07T10:22:58;8.18;;;3.78;;
61252;SDS011;47127;47.516;8.596;2024-01-07T10:25:24;8.07;;;4.32;;
61252;SDS011;47127;47.516;8.596;2024-01-07T10:27:50;6.78;;;3.08;;
61252;SDS011;47127;47.516;8.596;2024-01-07T10:30:15;8.40;;;3.90;;
61252;SDS011;47127;47.516;8.596;2024-01-07T10:32:42;7.88;;;3.00;;
61252;SDS011;47127;47.516;8.596;2024-01-07T10:35:08;6.90;;;3.65;;
61252;SDS011;47127;47.516;8.596;2024-01-07T10:37:39;6.63;;;3.28;;
61252;SDS011;47127;47.516;8.596;2024-01-07T10:40:05;8.15;;;3.67;;
61252;SDS011;47127;47.516;8.596;2024-01-07T10:42:32;8.38;;;3.80;;
61252;SDS011;47127;47.516;8.596;2024-01-07T10:45:02;7.35;;;3.80;;
61252;SDS011;47127;47.516;8.596;2024-01-07T10:47:29;8.25;;;3.92;;
61252;SDS011;47127;47.516;8.596;2024-01-07T10:49:57;8.45;;;3.67;;
61252;SDS011;47127;47.516;8.596;2024-01-07T10:52:26;8.25;;;3.30;;
61252;SDS011;47127;47.516;8.596;2024-01-07T10:54:52;7.15;;;3.25;;
61252;SDS011;47127;47.516;8.596;2024-01-07T11:00:05;7.30;;;3.50;;
61252;SDS011;47127;47.516;8.596;2024-01-07T11:02:35;6.85;;;3.28;;
61252;SDS011;47127;47.516;8.596;2024-01-07T11:05:11;7.43;;;3.58;;
61252;SDS011;47127;47.516;8.596;2024-01-07T11:07:43;7.25;;;3.28;;
61252;SDS011;47127;47.516;8.596;2024-01-07T11:10:14;8.68;;;3.95;;
61252;SDS011;47127;47.516;8.596;2024-01-07T11:12:48;7.18;;;3.25;;
61252;SDS011;47127;47.516;8.596;2024-01-07T11:18:21;7.63;;;3.55;;
61252;SDS011;47127;47.516;8.596;2024-01-07T11:20:47;7.32;;;3.67;;
61252;SDS011;47127;47.516;8.596;2024-01-07T11:23:25;6.78;;;3.58;;
61252;SDS011;47127;47.516;8.596;2024-01-07T11:25:54;7.97;;;3.50;;
61252;SDS011;47127;47.516;8.596;2024-01-07T11:31:07;8.70;;;3.50;;
61252;SDS011;47127;47.516;8.596;2024-01-07T11:33:33;7.55;;;3.30;;
61252;SDS011;47127;47.516;8.596;2024-01-07T11:36:02;6.22;;;3.05;;
61252;SDS011;47127;47.516;8.596;2024-01-07T11:38:29;7.35;;;3.35;;
61252;SDS011;47127;47.516;8.596;2024-01-07T11:40:55;6.05;;;2.97;;
61252;SDS011;47127;47.516;8.596;2024-01-07T11:43:22;5.63;;;3.08;;
61252;SDS011;47127;47.516;8.596;2024-01-07T11:45:51;7.15;;;3.45;;
61252;SDS011;47127;47.516;8.596;2024-01-07T11:48:20;8.10;;;3.47;;
61252;SDS011;47127;47.516;8.596;2024-01-07T11:50:47;4.80;;;2.35;;
61252;SDS011;47127;47.516;8.596;2024-01-07T11:53:12;6.18;;;2.80;;
61252;SDS011;47127;47.516;8.596;2024-01-07T11:55:38;6.90;;;3.50;;
61252;SDS011;47127;47.516;8.596;2024-01-07T11:58:05;6.65;;;2.85;;
61252;SDS011;47127;47.516;8.596;2024-01-07T12:00:31;6.30;;;3.03;;
61252;SDS011;47127;47.516;8.596;2024-01-07T12:02:58;5.05;;;2.53;;
61252;SDS011;47127;47.516;8.596;2024-01-07T12:05:27;6.40;;;3.05;;
61252;SDS011;47127;47.516;8.596;2024-01-07T12:07:53;5.63;;;3.00;;
61252;SDS011;47127;47.516;8.596;2024-01-07T12:10:20;5.57;;;2.90;;
61252;SDS011;47127;47.516;8.596;2024-01-07T12:12:47;6.07;;;3.00;;
61252;SDS011;47127;47.516;8.596;2024-01-07T12:15:13;6.57;;;3.38;;
61252;SDS011;47127;47.516;8.596;2024-01-07T12:17:40;6.38;;;3.17;;
61252;SDS011;47127;47.516;8.596;2024-01-07T12:20:06;6.95;;;3.20;;
61252;SDS011;47127;47.516;8.596;2024-01-07T12:22:33;6.68;;;3.97;;
61252;SDS011;47127;47.516;8.596;2024-01-07T12:25:05;7.47;;;3.45;;
61252;SDS011;47127;47.516;8.596;2024-01-07T12:27:31;5.57;;;3.08;;
61252;SDS011;47127;47.516;8.596;2024-01-07T12:29:59;7.20;;;3.38;;
61252;SDS011;47127;47.516;8.596;2024-01-07T12:32:28;8.93;;;3.88;;
61252;SDS011;47127;47.516;8.596;2024-01-07T12:34:59;7.28;;;3.05;;
61252;SDS011;47127;47.516;8.596;2024-01-07T12:37:26;6.93;;;3.35;;
61252;SDS011;47127;47.516;8.596;2024-01-07T12:39:53;7.68;;;3.80;;
61252;SDS011;47127;47.516;8.596;2024-01-07T12:42:19;6.47;;;3.25;;
61252;SDS011;47127;47.516;8.596;2024-01-07T12:44:47;7.03;;;3.40;;
61252;SDS011;47127;47.516;8.596;2024-01-07T12:47:13;6.43;;;3.70;;
61252;SDS011;47127;47.516;8.596;2024-01-07T12:49:39;7.57;;;3.90;;
61252;SDS011;47127;47.516;8.596;2024-01-07T12:52:05;8.52;;;3.90;;
61252;SDS011;47127;47.516;8.596;2024-01-07T12:54:30;8.05;;;4.18;;
61252;SDS011;47127;47.516;8.596;2024-01-07T12:56:56;6.47;;;3.78;;
61252;SDS011;47127;47.516;8.596;2024-01-07T12:59:21;8.00;;;4.32;;
61252;SDS011;47127;47.516;8.596;2024-01-07T13:01:47;7.85;;;4.40;;
61252;SDS011;47127;47.516;8.596;2024-01-07T13:04:13;7.25;;;4.00;;
61252;SDS011;47127;47.516;8.596;2024-01-07T13:06:39;6.97;;;4.10;;
61252;SDS011;47127;47.516;8.596;2024-01-07T13:09:04;8.65;;;4.13;;
61252;SDS011;47127;47.516;8.596;2024-01-07T13:11:30;7.05;;;3.72;;
61252;SDS011;47127;47.516;8.596;2024-01-07T13:13:56;8.80;;;4.72;;
61252;SDS011;47127;47.516;8.596;2024-01-07T13:16:26;9.20;;;4.55;;
61252;SDS011;47127;47.516;8.596;2024-01-07T13:18:52;9.25;;;4.15;;
61252;SDS011;47127;47.516;8.596;2024-01-07T13:21:18;9.00;;;4.22;;
61252;SDS011;47127;47.516;8.596;2024-01-07T13:23:45;8.70;;;4.10;;
61252;SDS011;47127;47.516;8.596;2024-01-07T13:26:11;8.38;;;4.30;;
61252;SDS011;47127;47.516;8.596;2024-01-07T13:28:36;9.80;;;4.50;;
61252;SDS011;47127;47.516;8.596;2024-01-07T13:31:02;9.05;;;4.57;;
61252;SDS011;47127;47.516;8.596;2024-01-07T13:33:28;8.82;;;4.65;;
61252;SDS011;47127;47.516;8.596;2024-01-07T13:35:54;7.78;;;4.18;;
61252;SDS011;47127;47.516;8.596;2024-01-07T13:38:20;9.25;;;4.85;;
61252;SDS011;47127;47.516;8.596;2024-01-07T13:40:47;10.23;;;4.57;;
61252;SDS011;47127;47.516;8.596;2024-01-07T13:43:13;9.10;;;4.55;;
61252;SDS011;47127;47.516;8.596;2024-01-07T13:45:39;7.78;;;3.75;;
61252;SDS011;47127;47.516;8.596;2024-01-07T13:48:06;9.88;;;4.70;;
61252;SDS011;47127;47.516;8.596;2024-01-07T13:50:32;9.15;;;4.28;;
61252;SDS011;47127;47.516;8.596;2024-01-07T13:52:58;8.30;;;4.07;;
61252;SDS011;47127;47.516;8.596;2024-01-07T13:55:23;7.95;;;3.25;;
61252;SDS011;47127;47.516;8.596;2024-01-07T13:57:49;9.95;;;4.25;;
61252;SDS011;47127;47.516;8.596;2024-01-07T14:00:15;7.47;;;4.20;;
61252;SDS011;47127;47.516;8.596;2024-01-07T14:02:43;7.45;;;4.03;;
61252;SDS011;47127;47.516;8.596;2024-01-07T14:05:11;8.55;;;4.10;;
61252;SDS011;47127;47.516;8.596;2024-01-07T14:07:37;8.75;;;3.60;;
61252;SDS011;47127;47.516;8.596;2024-01-07T14:10:06;8.07;;;3.88;;
61252;SDS011;47127;47.516;8.596;2024-01-07T14:12:33;7.18;;;3.50;;
61252;SDS011;47127;47.516;8.596;2024-01-07T14:14:59;7.60;;;3.92;;
61252;SDS011;47127;47.516;8.596;2024-01-07T14:17:25;26.65;;;11.77;;
61252;SDS011;47127;47.516;8.596;2024-01-07T14:19:51;34.63;;;17.92;;
61252;SDS011;47127;47.516;8.596;2024-01-07T14:22:20;26.98;;;11.57;;
61252;SDS011;47127;47.516;8.596;2024-01-07T14:24:46;17.92;;;8.45;;
61252;SDS011;47127;47.516;8.596;2024-01-07T14:27:12;39.35;;;18.98;;
61252;SDS011;47127;47.516;8.596;2024-01-07T14:29:39;43.03;;;18.45;;
61252;SDS011;47127;47.516;8.596;2024-01-07T14:32:05;14.05;;;5.95;;
61252;SDS011;47127;47.516;8.596;2024-01-07T14:34:31;6.95;;;3.22;;
61252;SDS011;47127;47.516;8.596;2024-01-07T14:36:57;6.82;;;3.28;;
61252;SDS011;47127;47.516;8.596;2024-01-07T14:39:23;8.70;;;3.85;;
61252;SDS011;47127;47.516;8.596;2024-01-07T14:41:48;7.95;;;4.28;;
61252;SDS011;47127;47.516;8.596;2024-01-07T14:44:14;7.00;;;3.60;;
61252;SDS011;47127;47.516;8.596;2024-01-07T14:46:39;8.27;;;3.72;;
61252;SDS011;47127;47.516;8.596;2024-01-07T14:49:05;7.65;;;3.63;;